createdAt,value
2023-02-23T00:00:10.968Z,58.42
2023-02-23T00:01:11.646Z,51.96
2023-02-23T00:02:10.966Z,53.34
2023-02-23T00:03:11.019Z,54.92
2023-02-23T00:04:10.950Z,61.24
2023-02-23T00:05:10.934Z,53.68
2023-02-23T00:06:10.947Z,51.83
2023-02-23T00:07:10.919Z,55.56
2023-02-23T00:08:10.910Z,56.97
2023-02-23T00:09:10.902Z,51.75
2023-02-23T00:10:10.968Z,61.80
2023-02-23T00:11:10.896Z,61.40
2023-02-23T00:12:10.884Z,49.94
2023-02-23T00:13:10.865Z,51.82
2023-02-23T00:14:10.877Z,57.51
2023-02-23T00:15:10.846Z,49.33
2023-02-23T00:16:10.869Z,56.88
2023-02-23T00:17:10.846Z,58.85
2023-02-23T00:18:10.847Z,62.66
2023-02-23T00:19:10.843Z,51.92
2023-02-23T00:20:15.561Z,55.14
2023-02-23T00:21:11.834Z,55.17
2023-02-23T00:22:11.894Z,52.15
2023-02-23T00:23:10.792Z,59.23
2023-02-23T00:26:03.184Z,61.29
2023-02-23T00:27:03.179Z,61.68
2023-02-23T00:28:05.044Z,55.86
2023-02-23T00:29:05.042Z,52.84
2023-02-23T00:30:03.146Z,60.27
2023-02-23T00:31:03.180Z,58.92
2023-02-23T00:32:03.196Z,60.28
2023-02-23T00:33:03.123Z,54.01
2023-02-23T00:34:03.118Z,52.56
2023-02-23T00:35:03.109Z,52.40
2023-02-23T00:36:03.097Z,59.10
2023-02-23T00:37:04.199Z,48.27
2023-02-23T00:38:04.184Z,53.29
2023-02-23T00:39:04.179Z,51.13
2023-02-23T00:40:04.157Z,47.40
2023-02-23T00:41:04.146Z,48.57
2023-02-23T00:42:04.155Z,56.44
2023-02-23T00:43:04.134Z,47.64
2023-02-23T00:44:04.134Z,51.47
2023-02-23T00:45:04.118Z,51.51
2023-02-23T00:46:04.173Z,53.78
2023-02-23T00:47:04.156Z,50.41
2023-02-23T00:48:04.090Z,47.58
2023-02-23T00:49:04.094Z,56.10
2023-02-23T00:50:04.090Z,48.80
2023-02-23T00:51:04.093Z,44.06
2023-02-23T00:52:04.146Z,46.35
2023-02-23T00:53:05.192Z,58.28
2023-02-23T00:54:04.077Z,56.50
2023-02-23T00:55:04.041Z,46.95
2023-02-23T00:56:04.989Z,45.71
2023-02-23T00:57:04.027Z,52.60
2023-02-23T00:58:04.027Z,53.97
2023-02-23T01:01:11.514Z,52.49
2023-02-23T01:02:11.519Z,58.64
2023-02-23T01:03:11.463Z,57.63
2023-02-23T01:04:11.475Z,48.72
2023-02-23T01:05:11.451Z,59.31
2023-02-23T01:06:12.549Z,53.63
2023-02-23T01:07:12.522Z,58.37
2023-02-23T01:08:12.505Z,61.27
2023-02-23T01:09:12.502Z,58.37
2023-02-23T01:10:12.519Z,56.98
2023-02-23T01:11:12.482Z,64.20
2023-02-23T01:12:12.495Z,47.39
2023-02-23T01:13:12.482Z,49.26
2023-02-23T01:14:12.470Z,60.85
2023-02-23T01:15:12.450Z,46.49
2023-02-23T01:16:12.465Z,45.92
2023-02-23T01:17:12.470Z,56.85
2023-02-23T01:18:12.426Z,54.79
2023-02-23T01:19:12.418Z,50.82
2023-02-23T01:20:12.431Z,47.48
2023-02-23T01:21:12.419Z,47.16
2023-02-23T01:22:12.396Z,55.82
2023-02-23T01:23:12.385Z,51.98
2023-02-23T01:24:12.382Z,49.62
2023-02-23T01:25:12.408Z,49.88
2023-02-23T01:26:12.365Z,60.18
2023-02-23T01:27:12.362Z,48.92
2023-02-23T01:28:13.348Z,51.06
2023-02-23T01:29:12.331Z,61.06
2023-02-23T01:30:12.372Z,53.55
2023-02-23T01:31:12.990Z,47.87
2023-02-23T01:32:12.438Z,49.61
2023-02-23T01:33:13.310Z,55.18
2023-02-23T01:34:12.311Z,59.42
2023-02-23T01:35:12.325Z,55.65
2023-02-23T01:36:12.278Z,48.70
2023-02-23T01:37:12.272Z,56.96
2023-02-23T01:38:12.260Z,51.95
2023-02-23T01:39:12.355Z,52.47
2023-02-23T01:40:12.264Z,49.96
2023-02-23T01:41:12.244Z,60.21
2023-02-23T01:42:12.234Z,57.08
2023-02-23T01:43:12.240Z,48.27
2023-02-23T01:44:12.227Z,46.89
2023-02-23T01:45:12.223Z,52.43
2023-02-23T01:46:12.240Z,49.57
2023-02-23T01:47:12.206Z,61.97
2023-02-23T01:48:12.188Z,59.65
2023-02-23T01:49:12.183Z,55.60
2023-02-23T01:50:12.201Z,61.39
2023-02-23T01:51:12.881Z,59.76
2023-02-23T01:52:12.158Z,56.15
2023-02-23T01:53:12.164Z,50.57
2023-02-23T01:54:12.843Z,60.93
2023-02-23T01:55:12.133Z,56.28
2023-02-23T01:56:12.135Z,55.95
2023-02-23T01:57:12.124Z,56.34
2023-02-23T01:58:12.152Z,54.35
2023-02-23T01:59:12.103Z,53.55
2023-02-23T02:00:12.104Z,52.98
2023-02-23T02:01:12.125Z,50.77
2023-02-23T02:02:12.927Z,61.18
2023-02-23T02:03:12.083Z,56.02
2023-02-23T02:04:12.058Z,59.89
2023-02-23T02:05:12.145Z,54.89
2023-02-23T02:06:12.089Z,58.70
2023-02-23T02:07:12.043Z,51.23
2023-02-23T02:08:12.028Z,52.41
2023-02-23T02:09:12.012Z,59.71
2023-02-23T02:10:12.939Z,52.32
2023-02-23T02:11:12.021Z,57.74
2023-02-23T02:12:12.018Z,46.12
2023-02-23T02:13:11.989Z,51.35
2023-02-23T02:14:11.986Z,53.45
2023-02-23T02:15:11.964Z,56.66
2023-02-23T02:16:11.990Z,50.49
2023-02-23T02:17:11.992Z,50.63
2023-02-23T02:18:11.952Z,53.12
2023-02-23T02:19:11.937Z,47.33
2023-02-23T02:20:11.928Z,49.40
2023-02-23T02:21:11.936Z,45.54
2023-02-23T02:22:11.916Z,55.21
2023-02-23T02:23:12.852Z,41.67
2023-02-23T02:24:11.890Z,41.55
2023-02-23T02:25:11.937Z,57.00
2023-02-23T02:26:11.914Z,54.51
2023-02-23T02:27:11.905Z,52.74
2023-02-23T02:28:11.872Z,56.80
2023-02-23T02:29:12.863Z,50.20
2023-02-23T02:30:11.849Z,59.34
2023-02-23T02:31:11.893Z,50.89
2023-02-23T02:32:11.887Z,44.93
2023-02-23T02:33:11.829Z,46.26
2023-02-23T02:34:11.893Z,61.26
2023-02-23T02:35:11.848Z,60.87
2023-02-23T02:36:11.820Z,60.17
2023-02-23T02:37:14.366Z,52.86
2023-02-23T02:38:11.786Z,59.39
2023-02-23T02:39:11.780Z,56.09
2023-02-23T02:40:11.774Z,52.93
2023-02-23T02:41:11.767Z,61.43
2023-02-23T02:42:11.760Z,48.25
2023-02-23T02:43:11.794Z,44.72
2023-02-23T02:44:12.512Z,50.32
2023-02-23T02:45:12.553Z,53.78
2023-02-23T02:46:11.808Z,45.93
2023-02-23T02:47:17.367Z,51.88
2023-02-23T02:48:29.378Z,63.31
2023-02-23T02:49:33.372Z,48.88
2023-02-23T02:50:16.405Z,58.19
2023-02-23T02:51:12.697Z,57.55
2023-02-23T02:52:13.542Z,54.01
2023-02-23T02:53:11.690Z,47.75
2023-02-23T02:54:21.372Z,44.89
2023-02-23T02:55:12.455Z,56.73
2023-02-23T02:56:11.660Z,53.72
2023-02-23T02:57:11.687Z,56.19
2023-02-23T02:58:11.654Z,55.82
2023-02-23T02:59:13.462Z,59.77
2023-02-23T03:00:11.619Z,54.69
2023-02-23T03:01:11.689Z,51.13
2023-02-23T03:02:11.605Z,58.06
2023-02-23T03:03:13.323Z,55.36
2023-02-23T03:04:11.598Z,49.63
2023-02-23T03:05:11.617Z,59.57
2023-02-23T03:06:11.592Z,55.52
2023-02-23T03:07:11.572Z,55.25
2023-02-23T03:08:11.624Z,55.41
2023-02-23T03:09:11.548Z,56.46
2023-02-23T03:10:11.532Z,54.99
2023-02-23T03:11:11.529Z,54.57
2023-02-23T03:12:11.539Z,56.91
2023-02-23T03:13:11.514Z,58.39
2023-02-23T03:14:11.507Z,56.69
2023-02-23T03:15:11.494Z,50.81
2023-02-23T03:16:11.557Z,51.57
2023-02-23T03:17:12.367Z,53.45
2023-02-23T03:18:11.473Z,59.50
2023-02-23T03:19:11.484Z,51.13
2023-02-23T03:20:11.446Z,57.32
2023-02-23T03:21:12.491Z,57.98
2023-02-23T03:22:11.422Z,48.80
2023-02-23T03:23:12.445Z,63.16
2023-02-23T03:24:11.427Z,59.11
2023-02-23T03:25:11.439Z,49.30
2023-02-23T03:26:11.402Z,59.14
2023-02-23T03:27:11.402Z,61.46
2023-02-23T03:28:11.404Z,59.57
2023-02-23T03:29:11.386Z,49.78
2023-02-23T03:30:11.390Z,54.64
2023-02-23T03:31:11.366Z,56.63
2023-02-23T03:32:11.463Z,57.87
2023-02-23T03:33:11.366Z,55.51
2023-02-23T03:34:11.341Z,56.23
2023-02-23T03:35:11.331Z,50.23
2023-02-23T03:36:11.336Z,48.95
2023-02-23T03:37:11.341Z,58.80
2023-02-23T03:38:11.308Z,56.76
2023-02-23T03:39:11.302Z,56.75
2023-02-23T03:40:11.305Z,51.48
2023-02-23T03:41:11.296Z,59.49
2023-02-23T03:42:11.281Z,52.43
2023-02-23T03:43:11.290Z,52.18
2023-02-23T03:44:11.276Z,56.42
2023-02-23T03:45:11.255Z,58.68
2023-02-23T03:46:11.258Z,52.32
2023-02-23T03:47:11.259Z,56.78
2023-02-23T03:48:11.223Z,55.96
2023-02-23T03:49:11.232Z,52.17
2023-02-23T03:50:11.223Z,57.02
2023-02-23T03:51:11.205Z,55.11
2023-02-23T03:52:11.201Z,56.08
2023-02-23T03:53:11.197Z,52.63
2023-02-23T03:54:11.194Z,57.50
2023-02-23T03:55:11.180Z,60.28
2023-02-23T03:56:11.171Z,55.74
2023-02-23T03:57:11.168Z,55.50
2023-02-23T03:58:11.152Z,59.97
2023-02-23T03:59:11.146Z,58.61
2023-02-23T04:00:11.138Z,57.16
2023-02-23T04:01:11.146Z,56.73
2023-02-23T04:02:11.150Z,57.37
2023-02-23T04:03:11.142Z,56.13
2023-02-23T04:04:11.114Z,54.44
2023-02-23T04:05:11.106Z,62.39
2023-02-23T04:06:12.877Z,51.96
2023-02-23T04:07:11.096Z,51.91
2023-02-23T04:08:11.069Z,54.73
2023-02-23T04:09:11.078Z,57.22
2023-02-23T04:10:11.055Z,60.21
2023-02-23T04:11:11.041Z,61.81
2023-02-23T04:12:11.052Z,60.85
2023-02-23T04:13:11.036Z,63.10
2023-02-23T04:14:11.028Z,54.47
2023-02-23T04:15:11.012Z,56.77
2023-02-23T04:16:11.037Z,59.73
2023-02-23T04:17:10.995Z,61.03
2023-02-23T04:18:10.980Z,61.45
2023-02-23T04:19:10.982Z,62.00
2023-02-23T04:20:10.966Z,63.90
2023-02-23T04:21:11.055Z,62.80
2023-02-23T04:22:10.976Z,59.84
2023-02-23T04:23:11.127Z,61.65
2023-02-23T04:24:10.950Z,61.90
2023-02-23T04:25:10.930Z,62.39
2023-02-23T04:26:10.917Z,59.44
2023-02-23T04:27:10.929Z,60.57
2023-02-23T04:28:10.924Z,60.21
2023-02-23T04:29:10.898Z,62.27
2023-02-23T04:30:10.890Z,63.82
2023-02-23T04:31:10.899Z,61.54
2023-02-23T04:32:11.054Z,62.13
2023-02-23T04:33:11.469Z,63.64
2023-02-23T04:34:10.872Z,58.90
2023-02-23T04:35:10.882Z,61.33
2023-02-23T04:36:10.845Z,61.67
2023-02-23T04:37:10.861Z,62.97
2023-02-23T04:38:10.860Z,68.01
2023-02-23T04:39:10.827Z,63.75
2023-02-23T04:40:10.810Z,57.16
2023-02-23T04:41:10.822Z,61.26
2023-02-23T04:42:10.816Z,61.40
2023-02-23T04:43:10.795Z,62.37
2023-02-23T04:44:10.801Z,64.77
2023-02-23T04:45:10.790Z,62.75
2023-02-23T04:46:10.792Z,62.24
2023-02-23T04:47:10.788Z,60.98
2023-02-23T04:48:10.818Z,64.61
2023-02-23T04:49:10.761Z,62.06
2023-02-23T04:50:10.739Z,63.32
2023-02-23T04:51:10.740Z,61.01
2023-02-23T04:52:10.740Z,63.08
2023-02-23T04:53:10.726Z,65.52
2023-02-23T04:54:10.742Z,60.57
2023-02-23T04:55:10.728Z,64.11
2023-02-23T04:56:10.697Z,60.27
2023-02-23T04:57:10.702Z,63.66
2023-02-23T04:58:10.714Z,62.66
2023-02-23T04:59:10.678Z,62.48
2023-02-23T05:00:10.668Z,66.83
2023-02-23T05:01:10.680Z,63.33
2023-02-23T05:02:10.662Z,63.60
2023-02-23T05:03:11.461Z,64.57
2023-02-23T05:04:10.657Z,64.10
2023-02-23T05:05:10.658Z,63.07
2023-02-23T05:06:10.617Z,61.98
2023-02-23T05:07:10.610Z,60.77
2023-02-23T05:08:10.675Z,61.56
2023-02-23T05:09:11.394Z,61.79
2023-02-23T05:10:10.586Z,59.33
2023-02-23T05:11:10.594Z,61.91
2023-02-23T05:12:10.573Z,60.60
2023-02-23T05:13:10.574Z,60.00
2023-02-23T05:14:10.549Z,62.55
2023-02-23T05:15:10.542Z,61.52
2023-02-23T05:16:10.565Z,61.44
2023-02-23T05:17:10.525Z,62.46
2023-02-23T05:18:10.528Z,63.07
2023-02-23T05:19:10.526Z,64.21
2023-02-23T05:20:10.526Z,65.78
2023-02-23T05:21:10.504Z,68.06
2023-02-23T05:22:10.495Z,62.68
2023-02-23T05:23:10.482Z,63.73
2023-02-23T05:24:10.490Z,63.96
2023-02-23T05:25:10.506Z,61.88
2023-02-23T05:26:11.468Z,64.87
2023-02-23T05:27:10.466Z,64.77
2023-02-23T05:28:10.449Z,60.86
2023-02-23T05:29:10.446Z,64.03
2023-02-23T05:30:10.458Z,63.98
2023-02-23T05:31:10.602Z,67.51
2023-02-23T05:32:10.580Z,65.36
2023-02-23T05:33:11.389Z,63.75
2023-02-23T05:34:11.397Z,64.50
2023-02-23T05:35:10.396Z,66.17
2023-02-23T05:36:10.382Z,66.74
2023-02-23T05:37:10.377Z,66.23
2023-02-23T05:38:10.409Z,63.57
2023-02-23T05:39:10.369Z,64.69
2023-02-23T05:40:10.344Z,62.70
2023-02-23T05:41:10.363Z,66.23
2023-02-23T05:42:10.334Z,65.28
2023-02-23T05:43:10.331Z,63.06
2023-02-23T05:44:10.349Z,65.01
2023-02-23T05:45:10.327Z,64.70
2023-02-23T05:46:10.356Z,64.37
2023-02-23T05:47:10.301Z,63.65
2023-02-23T05:48:10.294Z,63.69
2023-02-23T05:49:12.728Z,64.75
2023-02-23T05:50:11.283Z,66.99
2023-02-23T05:51:10.271Z,63.64
2023-02-23T05:52:10.259Z,65.22
2023-02-23T05:53:10.248Z,67.84
2023-02-23T05:54:10.253Z,68.10
2023-02-23T05:55:10.253Z,66.02
2023-02-23T05:56:10.239Z,64.45
2023-02-23T05:57:10.234Z,59.10
2023-02-23T05:58:10.973Z,66.63
2023-02-23T05:59:10.913Z,65.55
2023-02-23T06:00:10.223Z,64.96
2023-02-23T06:01:10.187Z,66.10
2023-02-23T06:02:10.191Z,65.82
2023-02-23T06:03:10.166Z,69.83
2023-02-23T06:04:10.168Z,68.24
2023-02-23T06:05:10.180Z,67.31
2023-02-23T06:06:15.906Z,67.89
2023-02-23T06:07:12.098Z,64.85
2023-02-23T06:08:11.131Z,65.04
2023-02-23T06:09:10.132Z,64.65
2023-02-23T06:10:10.124Z,65.09
2023-02-23T06:11:10.499Z,67.32
2023-02-23T06:12:10.131Z,65.19
2023-02-23T06:13:10.228Z,66.04
2023-02-23T06:14:10.116Z,65.80
2023-02-23T06:15:10.234Z,65.58
2023-02-23T06:16:10.190Z,68.56
2023-02-23T06:17:10.123Z,65.51
2023-02-23T06:18:10.135Z,68.71
2023-02-23T06:19:10.054Z,69.96
2023-02-23T06:20:10.039Z,67.47
2023-02-23T06:21:10.025Z,69.13
2023-02-23T06:22:10.023Z,67.92
2023-02-23T06:23:10.015Z,66.98
2023-02-23T06:24:10.011Z,68.22
2023-02-23T06:25:10.016Z,65.27
2023-02-23T06:26:09.981Z,68.70
2023-02-23T06:27:09.981Z,63.60
2023-02-23T06:28:09.971Z,66.59
2023-02-23T06:29:09.993Z,65.96
2023-02-23T06:30:09.972Z,66.38
2023-02-23T06:31:10.954Z,67.66
2023-02-23T06:32:10.050Z,68.64
2023-02-23T06:33:09.934Z,68.06
2023-02-23T06:34:09.936Z,67.63
2023-02-23T06:35:09.912Z,66.65
2023-02-23T06:36:09.956Z,65.86
2023-02-23T06:37:09.922Z,66.82
2023-02-23T06:38:10.956Z,67.39
2023-02-23T06:39:09.895Z,69.49
2023-02-23T06:40:09.873Z,65.16
2023-02-23T06:41:09.863Z,68.16
2023-02-23T06:42:09.870Z,70.01
2023-02-23T06:43:09.885Z,67.93
2023-02-23T06:44:09.851Z,67.13
2023-02-23T06:45:09.848Z,66.13
2023-02-23T06:46:09.850Z,66.65
2023-02-23T06:47:09.825Z,68.06
2023-02-23T06:48:09.816Z,67.46
2023-02-23T06:49:09.821Z,64.63
2023-02-23T06:50:09.856Z,67.30
2023-02-23T06:51:09.797Z,67.09
2023-02-23T06:52:09.781Z,66.52
2023-02-23T06:53:09.771Z,66.83
2023-02-23T06:54:09.789Z,68.86
2023-02-23T06:55:10.800Z,67.24
2023-02-23T06:56:12.392Z,68.07
2023-02-23T06:59:17.061Z,68.40
2023-02-23T07:00:18.190Z,67.24
2023-02-23T07:01:18.437Z,66.84
2023-02-23T07:02:18.165Z,67.84
2023-02-23T07:03:19.130Z,66.87
2023-02-23T07:04:19.212Z,67.13
2023-02-23T07:05:18.130Z,68.05
2023-02-23T07:06:18.137Z,68.28
2023-02-23T07:07:18.093Z,65.22
2023-02-23T07:08:18.106Z,66.91
2023-02-23T07:09:18.081Z,64.93
2023-02-23T07:10:19.028Z,66.12
2023-02-23T07:11:18.438Z,67.04
2023-02-23T07:12:18.066Z,65.29
2023-02-23T07:13:18.040Z,65.19
2023-02-23T07:14:26.126Z,68.41
2023-02-23T07:15:20.025Z,64.89
2023-02-23T21:25:02.536Z,61.95
2023-02-23T21:26:02.536Z,59.50
2023-02-23T21:27:02.527Z,59.15
2023-02-23T21:28:02.524Z,55.56
2023-02-23T21:29:02.506Z,61.94
2023-02-23T21:30:02.498Z,63.34
2023-02-23T21:31:02.552Z,63.41
2023-02-23T21:32:04.423Z,62.57
2023-02-23T21:33:02.693Z,65.19
2023-02-23T21:34:02.473Z,59.31
2023-02-23T21:35:02.460Z,58.10
2023-02-23T21:36:02.448Z,56.70
2023-02-23T21:37:03.377Z,62.81
2023-02-23T21:38:02.436Z,58.80
2023-02-23T21:39:02.434Z,60.06
2023-02-23T21:40:02.427Z,58.46
2023-02-23T21:41:03.359Z,60.79
2023-02-23T21:42:04.353Z,62.50
2023-02-23T21:43:02.402Z,56.18
2023-02-23T21:44:02.379Z,60.99
2023-02-23T21:45:02.370Z,62.73
2023-02-23T21:46:02.413Z,57.54
2023-02-23T21:47:02.376Z,61.82
2023-02-23T21:48:02.356Z,57.89
2023-02-23T21:49:02.368Z,57.91
2023-02-23T21:50:02.331Z,62.83
2023-02-23T21:51:02.336Z,60.38
2023-02-23T21:52:02.317Z,61.11
2023-02-23T21:53:02.308Z,58.24
2023-02-23T21:54:03.400Z,59.31
2023-02-23T21:55:08.028Z,59.93
2023-02-23T21:56:05.389Z,61.27
2023-02-23T21:57:03.372Z,61.08
2023-02-23T21:58:03.400Z,60.01
2023-02-23T21:59:03.356Z,64.23
2023-02-23T22:00:03.346Z,54.76
2023-02-23T22:01:03.337Z,56.76
2023-02-23T22:02:03.363Z,60.31
2023-02-23T22:03:03.948Z,61.38
2023-02-23T22:04:03.317Z,51.94
2023-02-23T22:05:03.318Z,61.67
2023-02-23T22:06:03.288Z,59.42
2023-02-23T22:07:03.295Z,58.27
2023-02-23T22:08:03.862Z,54.44
2023-02-23T22:09:03.280Z,59.95
2023-02-23T22:10:07.863Z,53.95
2023-02-23T22:11:04.264Z,58.21
2023-02-23T22:12:03.236Z,58.42
2023-02-23T22:13:04.236Z,58.51
2023-02-23T22:14:03.240Z,59.30
2023-02-23T22:15:03.223Z,63.30
2023-02-23T22:16:03.245Z,61.04
2023-02-23T22:17:03.204Z,48.63
2023-02-23T22:18:03.238Z,61.13
2023-02-23T22:19:03.310Z,54.69
2023-02-23T22:20:03.176Z,56.15
2023-02-23T22:21:05.892Z,62.27
2023-02-23T22:22:04.860Z,61.01
2023-02-23T22:23:03.288Z,58.33
2023-02-23T22:24:03.146Z,54.59
2023-02-23T22:25:03.144Z,61.72
2023-02-23T22:26:03.145Z,58.30
2023-02-23T22:27:03.983Z,56.82
2023-02-23T22:28:03.143Z,58.12
2023-02-23T22:29:03.952Z,55.43
2023-02-23T22:30:03.111Z,54.33
2023-02-23T22:31:03.128Z,56.40
2023-02-23T22:32:03.213Z,54.51
2023-02-23T22:33:03.224Z,53.98
2023-02-23T22:34:03.066Z,46.69
2023-02-23T22:35:03.125Z,49.65
2023-02-23T22:36:03.884Z,57.27
2023-02-23T22:37:03.884Z,53.30
2023-02-23T22:38:03.045Z,59.83
2023-02-23T22:39:04.948Z,60.86
2023-02-23T22:40:03.015Z,56.51
2023-02-23T22:41:03.003Z,55.15
2023-02-23T22:42:02.995Z,60.48
2023-02-23T22:43:03.838Z,54.08
2023-02-23T22:44:03.827Z,62.32
2023-02-23T22:45:04.462Z,59.03
2023-02-23T22:46:04.066Z,58.77
2023-02-23T22:47:03.016Z,56.22
2023-02-23T22:48:03.576Z,59.64
2023-02-23T22:49:03.984Z,56.68
2023-02-23T22:50:02.936Z,59.03
2023-02-23T22:51:02.926Z,57.11
2023-02-23T22:52:04.366Z,59.90
2023-02-23T22:53:03.657Z,59.42
2023-02-23T22:54:06.061Z,48.14
2023-02-23T22:55:02.894Z,54.69
2023-02-23T22:56:03.852Z,60.05
2023-02-23T22:57:02.977Z,53.63
2023-02-23T22:58:04.549Z,57.90
2023-02-23T22:59:02.868Z,49.76
2023-02-23T23:00:05.472Z,56.45
2023-02-23T23:01:06.944Z,50.53
2023-02-23T23:04:10.450Z,61.15
2023-02-23T23:05:10.166Z,60.75
2023-02-23T23:06:10.182Z,57.20
2023-02-23T23:07:10.145Z,52.62
2023-02-23T23:08:10.137Z,65.85
2023-02-23T23:09:10.131Z,61.49
2023-02-23T23:10:10.120Z,55.00
2023-02-23T23:11:10.124Z,52.06
2023-02-23T23:12:10.103Z,62.14
2023-02-23T23:13:10.092Z,60.17
2023-02-23T23:14:10.100Z,58.62
2023-02-23T23:15:10.085Z,60.39
2023-02-23T23:16:11.265Z,53.44
2023-02-23T23:17:10.184Z,57.04
2023-02-23T23:18:10.053Z,59.24
2023-02-23T23:19:10.063Z,51.74
2023-02-23T23:20:10.067Z,50.12
2023-02-23T23:21:10.030Z,57.04
2023-02-23T23:22:10.020Z,62.13
2023-02-23T23:23:10.011Z,49.43
2023-02-23T23:24:10.012Z,59.93
2023-02-23T23:25:09.992Z,57.39
2023-02-23T23:26:09.986Z,60.14
2023-02-23T23:27:09.990Z,60.09
2023-02-23T23:28:13.054Z,62.25
2023-02-23T23:29:09.986Z,56.86
2023-02-23T23:30:09.951Z,50.39
2023-02-23T23:31:10.023Z,56.13
2023-02-23T23:32:10.096Z,54.65
2023-02-23T23:33:10.034Z,57.93
2023-02-23T23:34:12.540Z,55.66
2023-02-23T23:35:09.908Z,51.45
2023-02-23T23:36:11.728Z,61.30
2023-02-23T23:37:14.031Z,60.66
2023-02-23T23:38:12.545Z,39.38
2023-02-23T23:39:11.602Z,48.26
2023-02-23T23:40:10.791Z,52.67
2023-02-23T23:41:09.872Z,54.26
2023-02-23T23:42:09.858Z,49.71
2023-02-23T23:43:09.849Z,54.20
2023-02-23T23:44:10.970Z,55.36
2023-02-23T23:45:10.928Z,54.51
2023-02-23T23:46:10.978Z,46.55
2023-02-23T23:47:10.913Z,46.58
2023-02-23T23:48:10.909Z,48.87
2023-02-23T23:49:10.901Z,47.84
2023-02-23T23:50:10.918Z,45.81
2023-02-23T23:51:10.878Z,57.09
2023-02-23T23:52:10.883Z,58.53
2023-02-23T23:53:10.870Z,51.87
2023-02-23T23:54:10.856Z,53.44
2023-02-23T23:55:10.845Z,58.27
2023-02-23T23:56:10.843Z,53.99
2023-02-23T23:57:10.832Z,57.99
2023-02-23T23:58:10.830Z,55.84
2023-02-23T23:59:10.823Z,59.25
